createdAt,value
2022-12-28T00:01:52.915Z,6.90
2022-12-28T00:04:20.910Z,6.50
2022-12-28T00:06:50.670Z,6.60
2022-12-28T00:09:20.097Z,7.10
2022-12-28T00:11:48.255Z,6.60
2022-12-28T00:14:16.136Z,6.60
2022-12-28T00:16:44.756Z,6.60
2022-12-28T00:19:14.593Z,6.60
2022-12-28T00:21:42.832Z,6.70
2022-12-28T00:24:20.325Z,6.70
2022-12-28T00:26:48.334Z,6.60
2022-12-28T00:29:16.494Z,6.80
2022-12-28T00:31:45.759Z,6.80
2022-12-28T00:34:13.908Z,6.80
2022-12-28T00:37:10.645Z,6.80
2022-12-28T00:39:31.417Z,6.80
2022-12-28T00:41:59.424Z,6.90
2022-12-28T00:44:27.386Z,6.90
2022-12-28T00:46:55.901Z,6.90
2022-12-28T00:49:23.805Z,6.90
2022-12-28T00:51:51.761Z,7.00
2022-12-28T00:54:19.715Z,7.00
2022-12-28T00:56:48.982Z,7.00
2022-12-28T00:59:17.428Z,7.10
2022-12-28T01:01:45.511Z,7.10
2022-12-28T01:04:13.596Z,7.60
2022-12-28T01:06:41.590Z,7.20
2022-12-28T01:09:09.564Z,7.20
2022-12-28T01:11:37.482Z,7.80
2022-12-28T01:14:06.814Z,7.20
2022-12-28T01:16:37.163Z,7.70
2022-12-28T01:19:07.305Z,7.40
2022-12-28T01:21:36.978Z,7.30
2022-12-28T01:24:07.809Z,7.30
2022-12-28T01:26:36.019Z,7.30
2022-12-28T01:29:05.845Z,7.30
2022-12-28T01:31:34.227Z,7.30
2022-12-28T01:34:02.459Z,7.30
2022-12-28T01:36:32.423Z,7.40
2022-12-28T01:39:02.726Z,7.30
2022-12-28T01:41:31.925Z,7.40
2022-12-28T01:44:40.111Z,7.40
2022-12-28T01:47:11.468Z,7.40
2022-12-28T01:49:44.336Z,7.40
2022-12-28T01:52:16.092Z,7.40
2022-12-28T01:54:47.050Z,7.40
2022-12-28T01:57:16.201Z,7.40
2022-12-28T01:59:48.629Z,7.40
2022-12-28T02:02:17.068Z,7.40
2022-12-28T02:04:46.498Z,7.40
2022-12-28T02:07:19.935Z,7.40
2022-12-28T02:10:40.749Z,7.40
2022-12-28T02:12:37.012Z,7.40
2022-12-28T02:15:07.202Z,7.50
2022-12-28T02:17:35.300Z,7.50
2022-12-28T02:20:03.601Z,7.50
2022-12-28T02:22:58.624Z,7.50
2022-12-28T02:26:10.187Z,7.60
2022-12-28T02:29:11.005Z,7.60
2022-12-28T02:31:45.178Z,7.60
2022-12-28T02:34:20.650Z,7.60
2022-12-28T02:36:54.918Z,7.60
2022-12-28T02:39:29.605Z,7.60
2022-12-28T02:41:58.343Z,7.70
2022-12-28T02:44:45.028Z,7.70
2022-12-28T02:47:34.380Z,7.80
2022-12-28T02:50:08.859Z,7.70
2022-12-28T02:52:58.079Z,7.70
2022-12-28T02:56:00.651Z,7.80
2022-12-28T02:58:55.681Z,7.80
2022-12-28T03:01:37.632Z,7.90
2022-12-28T03:04:13.998Z,7.80
2022-12-28T03:07:06.519Z,7.90
2022-12-28T03:09:41.426Z,7.90
2022-12-28T03:12:19.668Z,7.90
2022-12-28T03:14:50.274Z,7.90
2022-12-28T03:17:38.719Z,8.80
2022-12-28T03:20:28.187Z,7.90
2022-12-28T03:23:18.223Z,7.90
2022-12-28T03:26:06.272Z,7.90
2022-12-28T03:28:53.896Z,7.90
2022-12-28T03:31:24.727Z,7.90
2022-12-28T03:34:06.619Z,8.00
2022-12-28T03:36:44.178Z,7.90
2022-12-28T03:39:23.688Z,8.00
2022-12-28T03:42:13.748Z,8.00
2022-12-28T03:44:46.837Z,8.00
2022-12-28T03:47:16.799Z,8.80
2022-12-28T03:49:46.278Z,8.10
2022-12-28T03:52:14.751Z,8.10
2022-12-28T03:54:42.806Z,8.10
2022-12-28T03:57:10.791Z,8.70
2022-12-28T03:59:38.761Z,8.20
2022-12-28T04:02:06.865Z,8.10
2022-12-28T04:04:34.877Z,8.10
2022-12-28T04:07:04.166Z,8.20
2022-12-28T04:09:32.490Z,8.20
2022-12-28T04:12:00.627Z,8.70
2022-12-28T04:14:28.593Z,8.20
2022-12-28T04:16:56.518Z,8.20
2022-12-28T04:19:24.479Z,8.20
2022-12-28T04:21:52.451Z,8.30
2022-12-28T04:24:21.799Z,8.30
2022-12-28T04:26:49.866Z,8.30
2022-12-28T04:29:17.839Z,8.30
2022-12-28T04:31:45.793Z,8.30
2022-12-28T04:34:14.091Z,8.30
2022-12-28T04:36:42.674Z,8.30
2022-12-28T04:39:10.849Z,8.30
2022-12-28T04:41:40.283Z,8.40
2022-12-28T04:44:08.229Z,8.90
2022-12-28T04:46:36.264Z,8.80
2022-12-28T04:49:04.703Z,8.90
2022-12-28T04:51:35.251Z,8.30
2022-12-28T04:54:03.205Z,8.30
2022-12-28T04:56:31.597Z,8.30
2022-12-28T04:59:01.871Z,8.40
2022-12-28T05:01:30.071Z,9.10
2022-12-28T05:03:59.557Z,8.40
2022-12-28T05:06:29.370Z,8.40
2022-12-28T05:08:58.266Z,8.40
2022-12-28T05:11:28.112Z,8.40
2022-12-28T05:13:56.386Z,8.40
2022-12-28T05:16:28.497Z,8.40
2022-12-28T05:18:57.458Z,8.40
2022-12-28T05:21:27.192Z,8.40
2022-12-28T05:23:55.690Z,8.40
2022-12-28T05:26:25.789Z,9.30
2022-12-28T05:28:54.018Z,8.50
2022-12-28T05:31:23.842Z,8.50
2022-12-28T05:33:53.655Z,8.50
2022-12-28T05:36:24.212Z,8.50
2022-12-28T05:38:52.834Z,8.50
2022-12-28T05:41:22.823Z,8.50
2022-12-28T05:43:51.394Z,8.50
2022-12-28T05:46:22.015Z,8.50
2022-12-28T05:48:50.179Z,8.60
2022-12-28T05:51:22.428Z,8.60
2022-12-28T05:53:50.649Z,8.60
2022-12-28T05:56:20.371Z,8.60
2022-12-28T05:58:53.502Z,8.70
2022-12-28T06:01:23.700Z,8.60
2022-12-28T06:03:55.759Z,8.60
2022-12-28T06:06:25.612Z,8.70
2022-12-28T06:08:53.867Z,8.70
2022-12-28T06:11:23.390Z,8.60
2022-12-28T06:13:52.047Z,8.70
2022-12-28T06:16:23.083Z,8.70
2022-12-28T06:18:52.363Z,8.70
2022-12-28T06:21:21.698Z,8.70
2022-12-28T06:23:51.577Z,8.70
2022-12-28T06:26:21.623Z,8.70
2022-12-28T06:28:50.375Z,8.80
2022-12-28T06:31:20.152Z,8.60
2022-12-28T06:33:50.109Z,8.70
2022-12-28T06:36:20.443Z,8.70
2022-12-28T06:38:51.134Z,9.70
2022-12-28T06:41:21.171Z,8.70
2022-12-28T06:43:50.015Z,8.80
2022-12-28T06:46:20.076Z,8.90
2022-12-28T06:48:48.528Z,8.80
2022-12-28T06:51:18.081Z,8.80
2022-12-28T06:53:47.286Z,8.90
2022-12-28T06:56:18.310Z,9.00
2022-12-28T06:58:47.618Z,8.80
2022-12-28T07:01:17.573Z,8.80
2022-12-28T07:03:50.227Z,8.80
2022-12-28T07:06:19.905Z,8.80
2022-12-28T07:08:48.109Z,8.80
2022-12-28T07:11:19.400Z,8.90
2022-12-28T07:13:47.947Z,9.00
2022-12-28T07:16:17.627Z,8.90
2022-12-28T07:18:45.835Z,8.90
2022-12-28T07:21:16.547Z,8.90
2022-12-28T07:23:44.588Z,8.90
2022-12-28T07:26:14.764Z,9.30
2022-12-28T07:28:46.532Z,9.00
2022-12-28T07:31:16.753Z,9.00
2022-12-28T07:33:45.944Z,8.90
2022-12-28T07:36:16.169Z,9.00
2022-12-28T07:38:44.468Z,9.00
2022-12-28T07:41:14.048Z,9.00
2022-12-28T07:43:43.815Z,9.00
2022-12-28T07:46:13.697Z,9.10
2022-12-28T07:48:43.229Z,9.00
2022-12-28T07:51:14.179Z,9.10
2022-12-28T07:53:42.923Z,9.80
2022-12-28T07:56:11.701Z,10.00
2022-12-28T08:01:10.845Z,9.10
2022-12-28T08:03:39.549Z,9.10
2022-12-28T08:06:09.368Z,9.00
2022-12-28T08:08:38.179Z,9.00
2022-12-28T08:11:07.925Z,9.10
2022-12-28T08:13:37.381Z,9.00
2022-12-28T08:16:06.327Z,9.40
2022-12-28T08:18:35.852Z,9.10
2022-12-28T08:21:05.943Z,9.10
2022-12-28T08:23:34.134Z,9.10
2022-12-28T08:26:07.590Z,9.10
2022-12-28T08:28:36.441Z,9.30
2022-12-28T08:31:08.410Z,9.10
2022-12-28T08:33:37.814Z,9.10
2022-12-28T08:36:06.606Z,9.50
2022-12-28T08:38:35.125Z,9.10
2022-12-28T08:41:04.722Z,9.10
2022-12-28T08:43:33.986Z,9.10
2022-12-28T08:46:03.551Z,9.10
2022-12-28T08:48:31.612Z,9.10
2022-12-28T08:51:04.846Z,9.10
2022-12-28T08:53:32.894Z,9.10
2022-12-28T08:56:06.839Z,9.10
2022-12-28T08:58:35.077Z,9.20
2022-12-28T09:01:07.707Z,9.30
2022-12-28T09:03:37.979Z,9.20
2022-12-28T09:06:09.669Z,9.20
2022-12-28T09:08:38.348Z,9.20
2022-12-28T09:11:07.949Z,9.20
2022-12-28T09:13:36.744Z,9.20
2022-12-28T09:16:06.922Z,9.30
2022-12-28T09:18:35.888Z,9.30
2022-12-28T09:21:11.559Z,9.30
2022-12-28T09:23:39.642Z,9.30
2022-12-28T09:26:09.041Z,9.30
2022-12-28T09:28:37.665Z,9.30
2022-12-28T09:31:06.847Z,9.30
2022-12-28T09:34:32.066Z,9.30
2022-12-28T09:36:44.346Z,10.10
2022-12-28T09:39:14.541Z,9.30
2022-12-28T09:41:48.282Z,9.70
2022-12-28T09:44:44.722Z,9.40
2022-12-28T09:47:23.915Z,9.30
2022-12-28T09:50:03.446Z,9.70
2022-12-28T09:52:35.387Z,9.40
2022-12-28T09:55:11.816Z,9.40
2022-12-28T09:57:43.282Z,9.40
2022-12-28T10:00:18.891Z,9.40
2022-12-28T10:02:51.256Z,9.40
2022-12-28T10:05:20.656Z,9.40
2022-12-28T10:07:50.848Z,9.40
2022-12-28T10:10:19.958Z,9.40
2022-12-28T10:12:48.892Z,9.40
2022-12-28T10:15:17.628Z,9.40
2022-12-28T10:17:46.087Z,9.40
2022-12-28T10:20:20.552Z,9.40
2022-12-28T10:22:53.435Z,9.40
2022-12-28T10:25:23.974Z,9.40
2022-12-28T10:27:52.665Z,9.40
2022-12-28T10:30:24.039Z,9.30
2022-12-28T10:33:01.330Z,9.30
2022-12-28T10:35:33.162Z,9.90
2022-12-28T10:38:05.195Z,9.70
2022-12-28T10:40:35.758Z,9.70
2022-12-28T10:43:10.212Z,9.30
2022-12-28T10:45:43.216Z,9.30
2022-12-28T10:48:16.411Z,10.00
2022-12-28T10:50:50.582Z,9.20
2022-12-28T10:53:25.386Z,9.20
2022-12-28T10:56:03.513Z,9.20
2022-12-28T10:58:33.229Z,9.50
2022-12-28T11:01:05.398Z,9.20
2022-12-28T11:03:37.038Z,9.20
2022-12-28T11:06:19.867Z,9.10
2022-12-28T11:09:06.000Z,9.10
2022-12-28T11:11:34.537Z,9.20
2022-12-28T11:14:06.053Z,9.10
2022-12-28T11:16:37.785Z,9.10
2022-12-28T11:19:06.054Z,9.70
2022-12-28T11:21:35.961Z,9.80
2022-12-28T11:24:06.201Z,9.10
2022-12-28T11:26:35.211Z,9.10
2022-12-28T11:29:03.611Z,9.10
2022-12-28T11:31:35.181Z,9.00
2022-12-28T11:34:05.711Z,9.00
2022-12-28T11:36:41.714Z,10.00
2022-12-28T11:39:42.309Z,9.10
2022-12-28T11:42:38.020Z,9.00
2022-12-28T11:44:58.230Z,9.00
2022-12-28T11:47:33.178Z,9.00
2022-12-28T11:50:42.325Z,9.00
2022-12-28T11:53:24.411Z,9.00
2022-12-28T11:56:04.207Z,9.00
2022-12-28T11:59:01.201Z,9.00
2022-12-28T12:01:44.656Z,9.00
2022-12-28T12:04:40.803Z,9.00
2022-12-28T12:07:41.518Z,9.00
2022-12-28T12:10:35.073Z,9.00
2022-12-28T12:13:44.620Z,9.00
2022-12-28T12:16:27.759Z,9.00
2022-12-28T12:18:58.748Z,9.00
2022-12-28T12:21:32.815Z,9.00
2022-12-28T12:24:10.921Z,9.00
2022-12-28T12:26:45.871Z,9.00
2022-12-28T12:29:18.624Z,9.00
2022-12-28T12:31:51.781Z,9.10
2022-12-28T12:34:27.409Z,9.10
2022-12-28T12:37:31.934Z,9.10
2022-12-28T12:40:26.068Z,9.10
2022-12-28T12:43:10.802Z,9.10
2022-12-28T12:45:53.119Z,9.10
2022-12-28T12:48:35.088Z,9.10
2022-12-28T12:51:27.350Z,8.70
2022-12-28T12:54:28.002Z,9.20
2022-12-28T12:57:00.530Z,9.20
2022-12-28T12:59:48.750Z,9.20
2022-12-28T13:02:41.176Z,9.30
2022-12-28T13:05:17.190Z,10.10
2022-12-28T13:07:45.723Z,9.20
2022-12-28T13:10:19.042Z,9.20
2022-12-28T13:12:47.100Z,9.30
2022-12-28T13:15:19.114Z,9.30
2022-12-28T13:20:57.105Z,9.40
2022-12-28T13:23:26.124Z,9.50
2022-12-28T13:25:56.321Z,9.50
2022-12-28T13:28:29.700Z,9.50
2022-12-28T13:31:02.236Z,10.20
2022-12-28T13:33:31.787Z,9.60
2022-12-28T13:36:12.745Z,9.60
2022-12-28T13:38:40.770Z,9.60
2022-12-28T13:41:20.881Z,10.40
2022-12-28T13:44:23.638Z,10.30
2022-12-28T13:46:56.828Z,9.70
2022-12-28T13:49:28.618Z,9.70
2022-12-28T13:51:57.404Z,9.70
2022-12-28T13:54:25.942Z,9.70
2022-12-28T13:57:20.395Z,9.70
2022-12-28T13:59:46.501Z,9.70
2022-12-28T14:02:18.568Z,9.60
2022-12-28T14:04:53.138Z,10.00
2022-12-28T14:07:24.824Z,10.20
2022-12-28T14:09:54.335Z,9.70
2022-12-28T14:12:23.054Z,9.70
2022-12-28T14:14:51.644Z,9.70
2022-12-28T14:17:20.966Z,9.70
2022-12-28T14:19:51.157Z,9.70
2022-12-28T14:22:33.504Z,9.70
2022-12-28T14:25:07.620Z,9.70
2022-12-28T14:27:38.578Z,9.80
2022-12-28T14:30:09.175Z,9.70
2022-12-28T14:32:42.705Z,9.60
2022-12-28T14:35:19.774Z,9.60
2022-12-28T14:37:52.658Z,9.60
2022-12-28T14:40:27.970Z,9.10
2022-12-28T14:42:56.964Z,9.60
2022-12-28T14:46:04.950Z,9.60
2022-12-28T14:48:33.727Z,9.60
2022-12-28T14:51:05.068Z,10.40
2022-12-28T14:53:33.303Z,9.60
2022-12-28T14:56:05.679Z,9.50
2022-12-28T14:58:40.413Z,9.50
2022-12-28T15:01:10.454Z,9.50
2022-12-28T15:03:53.176Z,9.50
2022-12-28T15:06:22.811Z,9.50
2022-12-28T15:08:51.880Z,9.50
2022-12-28T15:11:20.274Z,9.40
2022-12-28T15:13:49.054Z,9.50
2022-12-28T15:16:18.874Z,9.40
2022-12-28T15:18:47.314Z,9.40
2022-12-28T15:21:17.372Z,9.50
2022-12-28T15:23:49.872Z,9.30
2022-12-28T15:26:18.206Z,9.30
2022-12-28T15:28:46.308Z,10.10
2022-12-28T15:31:16.980Z,9.30
2022-12-28T15:33:45.717Z,9.30
2022-12-28T15:36:17.988Z,9.30
2022-12-28T15:38:48.185Z,9.20
2022-12-28T15:41:34.428Z,9.10
2022-12-28T15:44:02.415Z,9.20
2022-12-28T15:46:30.530Z,9.20
2022-12-28T15:48:58.562Z,9.20
2022-12-28T15:51:26.470Z,9.10
2022-12-28T15:53:55.812Z,9.20
2022-12-28T15:56:26.170Z,9.80
2022-12-28T15:58:56.148Z,9.10
2022-12-28T16:01:25.821Z,9.10
2022-12-28T16:03:55.571Z,9.10
2022-12-28T16:06:24.381Z,10.10
2022-12-28T16:08:57.043Z,9.10
2022-12-28T16:11:26.186Z,8.30
2022-12-28T16:13:56.253Z,9.10
2022-12-28T16:16:25.044Z,8.60
2022-12-28T16:18:56.511Z,9.00
2022-12-28T16:21:25.597Z,10.00
2022-12-28T16:23:53.931Z,9.00
2022-12-28T16:26:23.526Z,9.00
2022-12-28T16:28:51.552Z,9.00
2022-12-28T16:31:24.623Z,9.40
2022-12-28T16:33:56.848Z,9.10
2022-12-28T16:36:25.302Z,9.00
2022-12-28T16:38:53.956Z,9.00
2022-12-28T16:41:24.009Z,9.00
2022-12-28T16:43:52.137Z,9.00
2022-12-28T16:46:20.372Z,9.00
2022-12-28T16:48:48.374Z,9.00
2022-12-28T16:51:16.317Z,9.60
2022-12-28T16:53:44.278Z,9.20
2022-12-28T16:56:12.253Z,9.00
2022-12-28T16:58:44.987Z,9.00
2022-12-28T17:01:15.665Z,9.00
2022-12-28T17:03:43.947Z,9.00
2022-12-28T17:06:12.163Z,9.00
2022-12-28T17:08:40.350Z,9.00
2022-12-28T17:11:10.190Z,9.00
2022-12-28T17:13:38.300Z,9.00
2022-12-28T17:16:08.975Z,9.00
2022-12-28T17:18:37.536Z,9.00
2022-12-28T17:21:07.399Z,9.80
2022-12-28T17:23:35.470Z,9.00
2022-12-28T17:26:03.444Z,9.00
2022-12-28T17:28:31.361Z,8.90
2022-12-28T17:31:10.172Z,9.00
2022-12-28T17:33:40.068Z,9.10
2022-12-28T17:36:09.591Z,9.00
2022-12-28T17:38:37.702Z,9.00
2022-12-28T17:41:10.154Z,9.00
2022-12-28T17:43:38.024Z,9.00
2022-12-28T17:46:07.747Z,9.00
2022-12-28T17:48:35.801Z,9.00
2022-12-28T17:51:10.905Z,9.00
2022-12-28T17:53:40.152Z,9.00
2022-12-28T17:56:10.156Z,9.00
2022-12-28T17:58:38.098Z,9.00
2022-12-28T18:01:08.239Z,9.00
2022-12-28T18:03:36.918Z,9.90
2022-12-28T18:06:05.669Z,9.00
2022-12-28T18:08:34.075Z,9.00
2022-12-28T18:11:02.190Z,9.00
2022-12-28T18:13:30.252Z,9.00
2022-12-28T18:15:58.400Z,9.10
2022-12-28T18:18:27.719Z,9.10
2022-12-28T18:20:59.748Z,9.10
2022-12-28T18:23:28.718Z,9.10
2022-12-28T18:26:02.695Z,9.20
2022-12-28T18:28:30.713Z,9.10
2022-12-28T18:31:02.071Z,9.10
2022-12-28T18:33:32.862Z,9.20
2022-12-28T18:36:02.909Z,9.20
2022-12-28T18:38:31.489Z,9.20
2022-12-28T18:41:00.401Z,9.70
2022-12-28T18:43:28.820Z,9.20
2022-12-28T18:45:58.977Z,9.30
2022-12-28T18:48:28.210Z,10.10
2022-12-28T18:50:59.734Z,9.30
2022-12-28T18:53:29.045Z,9.30
2022-12-28T18:55:58.599Z,9.30
2022-12-28T18:58:27.531Z,9.40
2022-12-28T19:00:55.666Z,9.40
2022-12-28T19:03:23.713Z,9.40
2022-12-28T19:06:02.875Z,9.40
2022-12-28T19:08:31.778Z,9.50
2022-12-28T19:11:00.269Z,9.40
2022-12-28T19:13:28.751Z,9.40
2022-12-28T19:15:56.964Z,9.70
2022-12-28T19:18:24.976Z,9.50
2022-12-28T19:20:59.100Z,10.40
2022-12-28T19:23:27.405Z,10.10
2022-12-28T19:25:59.510Z,9.50
2022-12-28T19:28:27.678Z,9.50
2022-12-28T19:31:01.028Z,9.90
2022-12-28T19:33:32.591Z,9.50
2022-12-28T19:36:02.088Z,9.60
2022-12-28T19:38:30.032Z,9.70
2022-12-28T19:40:58.626Z,9.60
2022-12-28T19:43:26.539Z,9.50
2022-12-28T19:45:54.498Z,9.60
2022-12-28T19:48:22.447Z,9.60
2022-12-28T19:50:50.405Z,9.70
2022-12-28T19:53:19.750Z,9.70
2022-12-28T19:55:47.685Z,9.90
2022-12-28T19:58:15.652Z,9.70
2022-12-28T20:00:43.573Z,9.70
2022-12-28T20:03:12.696Z,9.70
2022-12-28T20:05:40.796Z,9.90
2022-12-28T20:08:08.718Z,10.30
2022-12-28T20:10:38.054Z,9.70
2022-12-28T20:13:06.015Z,9.70
2022-12-28T20:15:34.781Z,9.80
2022-12-28T20:18:02.715Z,9.90
2022-12-28T20:20:45.799Z,9.80
2022-12-28T20:23:18.946Z,9.80
2022-12-28T20:25:52.687Z,9.70
2022-12-28T20:28:20.802Z,9.80
2022-12-28T20:30:49.141Z,9.90
2022-12-28T20:33:18.041Z,10.00
2022-12-28T20:35:57.176Z,9.90
2022-12-28T20:38:25.344Z,10.20
2022-12-28T20:41:04.472Z,10.30
2022-12-28T20:43:31.899Z,9.80
2022-12-28T20:46:00.134Z,9.90
2022-12-28T20:48:28.154Z,10.00
2022-12-28T20:51:00.241Z,10.00
2022-12-28T20:53:28.937Z,10.00
2022-12-28T20:56:08.429Z,10.00
2022-12-28T20:58:36.878Z,10.00
2022-12-28T21:01:05.519Z,10.90
2022-12-28T21:03:33.625Z,10.00
2022-12-28T21:06:01.654Z,10.10
2022-12-28T21:08:30.988Z,10.10
2022-12-28T21:10:59.702Z,10.30
2022-12-28T21:13:29.145Z,10.30
2022-12-28T21:15:57.423Z,10.10
2022-12-28T21:18:25.617Z,10.10
2022-12-28T21:20:57.251Z,10.30
2022-12-28T21:23:25.418Z,10.10
2022-12-28T21:25:53.395Z,10.10
2022-12-28T21:28:21.302Z,10.10
2022-12-28T21:30:55.656Z,10.10
2022-12-28T21:33:25.595Z,10.20
2022-12-28T21:36:04.536Z,10.20
2022-12-28T21:38:33.677Z,10.20
2022-12-28T21:41:02.760Z,10.20
2022-12-28T21:43:31.643Z,10.10
2022-12-28T21:46:03.161Z,10.20
2022-12-28T21:48:32.284Z,10.20
2022-12-28T21:51:05.891Z,10.20
2022-12-28T21:53:34.376Z,10.20
2022-12-28T21:56:02.502Z,10.20
2022-12-28T21:58:30.451Z,10.20
2022-12-28T22:01:16.692Z,10.20
2022-12-28T22:04:03.606Z,10.20
2022-12-28T22:06:31.531Z,10.20
2022-12-28T22:09:17.155Z,10.30
2022-12-28T22:12:02.593Z,10.20
2022-12-28T22:14:30.559Z,10.20
2022-12-28T22:16:58.512Z,10.30
2022-12-28T22:19:28.905Z,10.20
2022-12-28T22:21:56.816Z,10.20
2022-12-28T22:24:24.897Z,10.50
2022-12-28T22:26:52.768Z,10.20
2022-12-28T22:29:21.417Z,10.20
2022-12-28T22:31:49.411Z,10.20
2022-12-28T22:34:17.355Z,10.20
2022-12-28T22:36:46.655Z,10.20
2022-12-28T22:39:14.551Z,10.20
2022-12-28T22:41:42.471Z,10.20
2022-12-28T22:44:11.252Z,10.20
2022-12-28T22:46:39.288Z,10.10
2022-12-28T22:49:07.243Z,10.20
2022-12-28T22:51:35.172Z,10.70
2022-12-28T22:54:04.614Z,10.10
2022-12-28T22:56:32.606Z,10.20
2022-12-28T22:59:04.721Z,10.20
2022-12-28T23:01:34.793Z,10.40
2022-12-28T23:04:02.841Z,10.40
2022-12-28T23:06:30.778Z,10.80
2022-12-28T23:08:58.971Z,10.30
2022-12-28T23:11:37.402Z,10.30
2022-12-28T23:14:28.516Z,10.30
2022-12-28T23:16:56.710Z,10.30
2022-12-28T23:19:42.991Z,10.20
2022-12-28T23:22:32.267Z,10.30
2022-12-28T23:25:17.948Z,10.20
2022-12-28T23:27:48.339Z,10.20
2022-12-28T23:30:18.770Z,10.20
2022-12-28T23:32:46.808Z,10.30
2022-12-28T23:35:15.002Z,10.20
2022-12-28T23:37:42.893Z,10.20
2022-12-28T23:40:13.628Z,10.30
2022-12-28T23:42:42.838Z,10.30
2022-12-28T23:45:14.824Z,10.30
2022-12-28T23:47:43.827Z,10.30
2022-12-28T23:50:13.173Z,10.30
2022-12-28T23:52:41.141Z,10.90
2022-12-28T23:55:10.556Z,10.40
2022-12-28T23:57:38.921Z,10.40
